PWSweather.com
Personal Weather Stations
Station Observations
KTXNEWBR92
New Braunfels, TX

New Braunfels, TX

Lat: 29.722, Lon: -98.17

Elevation: 850

Station Type:

High Low Average
Temperature 61.3°F16.3°C 39.7°F4.3°C 51.2°F10.7°C
Dew Point 59.9°F15.5°C 19.0°F-7.2°C 29.7°F-1.3°C
Winds 19.0 mph 30.6 kmh Calm Calm 5.0 mph S8.0 kmh S
Wind Gusts 24.8 mph39.9 kmh -- 7.0 mph11.3 kmh
Humidity 95% 23% 46%
Pressure 30.09 in1019.0 mb 29.58 in1001.7 mb -
Precipitation 0.05 in1.3 mm - -
Hour Temp Dew Point Humidity Winds Wind Gusts Pressure Precip Precip Rate Daily Precip Total
12:04 AM 58.1°F14.5°C 56.7°F13.7°C 95% 4.3 mph NNE6.9 kmh NNE 4.9 mph7.9 kmh 29.61 in1002.7 mb 0.00 in0.0 mm 0.00 in0.0 mm 0.04 in1.0 mm
12:09 AM 58.1°F14.5°C 56.7°F13.7°C 95% Calm Calm -- 29.60 in1002.4 mb 0.00 in0.0 mm 0.00 in0.0 mm 0.04 in1.0 mm
12:14 AM 58.1°F14.5°C 57.0°F13.9°C 96% Calm Calm -- 29.61 in1002.7 mb 0.00 in0.0 mm 0.00 in0.0 mm 0.04 in1.0 mm
12:19 AM 58.3°F14.6°C 56.8°F13.8°C 95% Calm Calm -- 29.60 in1002.4 mb 0.00 in0.0 mm 0.00 in0.0 mm 0.04 in1.0 mm
12:24 AM 58.6°F14.8°C 57.6°F14.2°C 96% 2.0 mph N3.2 kmh N 2.5 mph4.0 kmh 29.60 in1002.4 mb 0.00 in0.0 mm 0.00 in0.0 mm 0.04 in1.0 mm
12:29 AM 59.2°F15.1°C 58.1°F14.5°C 96% 1.3 mph SW2.1 kmh SW 2.5 mph4.0 kmh 29.59 in1002.0 mb 0.00 in0.0 mm 0.00 in0.0 mm 0.04 in1.0 mm
12:34 AM 59.5°F15.3°C 58.5°F14.7°C 96% Calm Calm -- 29.59 in1002.0 mb 0.00 in0.0 mm 0.00 in0.0 mm 0.04 in1.0 mm
12:39 AM 60.1°F15.6°C 59.0°F15.0°C 96% 1.3 mph ESE2.1 kmh ESE 2.5 mph4.0 kmh 29.59 in1002.0 mb 0.00 in0.0 mm 0.00 in0.0 mm 0.04 in1.0 mm
12:44 AM 60.6°F15.9°C 59.2°F15.1°C 95% 1.8 mph W2.9 kmh W 2.5 mph4.0 kmh 29.60 in1002.4 mb 0.00 in0.0 mm 0.00 in0.0 mm 0.04 in1.0 mm
12:49 AM 60.8°F16.0°C 59.4°F15.2°C 95% 0.4 mph NNE0.6 kmh NNE 2.5 mph4.0 kmh 29.60 in1002.4 mb 0.00 in0.0 mm 0.00 in0.0 mm 0.04 in1.0 mm
12:54 AM 61.0°F16.1°C 59.5°F15.3°C 95% 1.1 mph SW1.8 kmh SW 2.5 mph4.0 kmh 29.60 in1002.4 mb 0.00 in0.0 mm 0.00 in0.0 mm 0.04 in1.0 mm
01:04 AM 61.2°F16.2°C 59.7°F15.4°C 95% 7.2 mph NW11.6 kmh NW 9.8 mph15.8 kmh 29.61 in1002.7 mb 0.00 in0.0 mm 0.00 in0.0 mm 0.00 in0.0 mm
01:09 AM 61.3°F16.3°C 59.9°F15.5°C 95% 1.1 mph W1.8 kmh W 2.5 mph4.0 kmh 29.61 in1002.7 mb 0.00 in0.0 mm 0.00 in0.0 mm 0.00 in0.0 mm
01:14 AM 61.3°F16.3°C 59.9°F15.5°C 95% 6.7 mph NW10.8 kmh NW 12.3 mph19.8 kmh 29.61 in1002.7 mb 0.00 in0.0 mm 0.00 in0.0 mm 0.00 in0.0 mm
01:19 AM 61.2°F16.2°C 59.5°F15.3°C 94% Calm Calm -- 29.62 in1003.0 mb 0.00 in0.0 mm 0.00 in0.0 mm 0.00 in0.0 mm
01:24 AM 61.2°F16.2°C 59.5°F15.3°C 94% 4.0 mph NW6.4 kmh NW 4.9 mph7.9 kmh 29.62 in1003.0 mb 0.00 in0.0 mm 0.00 in0.0 mm 0.00 in0.0 mm
01:29 AM 61.2°F16.2°C 59.2°F15.1°C 93% 3.4 mph S5.5 kmh S 4.9 mph7.9 kmh 29.61 in1002.7 mb 0.00 in0.0 mm 0.00 in0.0 mm 0.00 in0.0 mm
01:34 AM 61.0°F16.1°C 58.6°F14.8°C 92% 4.0 mph N6.4 kmh N 4.9 mph7.9 kmh 29.61 in1002.7 mb 0.00 in0.0 mm 0.00 in0.0 mm 0.00 in0.0 mm
01:39 AM 61.0°F16.1°C 58.3°F14.6°C 91% 4.9 mph SW7.9 kmh SW 7.4 mph11.9 kmh 29.61 in1002.7 mb 0.00 in0.0 mm 0.00 in0.0 mm 0.00 in0.0 mm
01:44 AM 60.8°F16.0°C 57.9°F14.4°C 90% 5.8 mph NW9.3 kmh NW 7.4 mph11.9 kmh 29.60 in1002.4 mb 0.00 in0.0 mm 0.00 in0.0 mm 0.00 in0.0 mm
01:49 AM 60.8°F16.0°C 57.2°F14.0°C 88% 3.6 mph N5.8 kmh N 4.9 mph7.9 kmh 29.60 in1002.4 mb 0.00 in0.0 mm 0.00 in0.0 mm 0.00 in0.0 mm
01:54 AM 60.8°F16.0°C 57.2°F14.0°C 88% 1.3 mph N2.1 kmh N 2.5 mph4.0 kmh 29.60 in1002.4 mb 0.00 in0.0 mm 0.00 in0.0 mm 0.00 in0.0 mm
01:59 AM 60.6°F15.9°C 56.8°F13.8°C 87% 2.5 mph NW4.0 kmh NW 2.5 mph4.0 kmh 29.59 in1002.0 mb 0.00 in0.0 mm 0.00 in0.0 mm 0.00 in0.0 mm
02:04 AM 60.6°F15.9°C 56.8°F13.8°C 87% 0.4 mph ENE0.6 kmh ENE 2.5 mph4.0 kmh 29.59 in1002.0 mb 0.00 in0.0 mm 0.00 in0.0 mm 0.00 in0.0 mm
02:09 AM 60.6°F15.9°C 56.8°F13.8°C 87% 1.1 mph N1.8 kmh N 2.5 mph4.0 kmh 29.59 in1002.0 mb 0.00 in0.0 mm 0.00 in0.0 mm 0.00 in0.0 mm
02:14 AM 60.6°F15.9°C 56.5°F13.6°C 86% 3.6 mph WSW5.8 kmh WSW 4.9 mph7.9 kmh 29.59 in1002.0 mb 0.00 in0.0 mm 0.00 in0.0 mm 0.00 in0.0 mm
02:19 AM 60.6°F15.9°C 56.1°F13.4°C 85% 2.0 mph WNW3.2 kmh WNW 4.9 mph7.9 kmh 29.59 in1002.0 mb 0.00 in0.0 mm 0.00 in0.0 mm 0.00 in0.0 mm
02:24 AM 60.4°F15.8°C 56.3°F13.5°C 86% 2.0 mph NNE3.2 kmh NNE 2.5 mph4.0 kmh 29.60 in1002.4 mb 0.00 in0.0 mm 0.00 in0.0 mm 0.00 in0.0 mm
02:29 AM 60.3°F15.7°C 56.5°F13.6°C 87% 1.1 mph NE1.8 kmh NE 2.5 mph4.0 kmh 29.60 in1002.4 mb 0.00 in0.0 mm 0.00 in0.0 mm 0.00 in0.0 mm
02:34 AM 60.1°F15.6°C 55.9°F13.3°C 86% 2.7 mph N4.3 kmh N 4.9 mph7.9 kmh 29.60 in1002.4 mb 0.00 in0.0 mm 0.00 in0.0 mm 0.00 in0.0 mm
02:39 AM 59.9°F15.5°C 55.8°F13.2°C 86% 1.8 mph S2.9 kmh S 2.5 mph4.0 kmh 29.60 in1002.4 mb 0.00 in0.0 mm 0.00 in0.0 mm 0.00 in0.0 mm
02:44 AM 59.5°F15.3°C 55.0°F12.8°C 85% 1.3 mph W2.1 kmh W 2.5 mph4.0 kmh 29.60 in1002.4 mb 0.00 in0.0 mm 0.00 in0.0 mm 0.00 in0.0 mm
02:49 AM 59.4°F15.2°C 54.5°F12.5°C 84% 0.4 mph NE0.6 kmh NE 2.5 mph4.0 kmh 29.59 in1002.0 mb 0.00 in0.0 mm 0.00 in0.0 mm 0.00 in0.0 mm
02:54 AM 59.2°F15.1°C 53.8°F12.1°C 82% Calm Calm -- 29.58 in1001.7 mb 0.00 in0.0 mm 0.00 in0.0 mm 0.00 in0.0 mm
02:59 AM 59.0°F15.0°C 53.2°F11.8°C 81% Calm Calm -- 29.58 in1001.7 mb 0.00 in0.0 mm 0.00 in0.0 mm 0.00 in0.0 mm
03:04 AM 58.8°F14.9°C 53.1°F11.7°C 81% Calm Calm -- 29.59 in1002.0 mb 0.00 in0.0 mm 0.00 in0.0 mm 0.00 in0.0 mm
03:09 AM 58.5°F14.7°C 53.1°F11.7°C 82% Calm Calm -- 29.58 in1001.7 mb 0.00 in0.0 mm 0.00 in0.0 mm 0.00 in0.0 mm
03:14 AM 58.3°F14.6°C 52.5°F11.4°C 81% Calm Calm -- 29.58 in1001.7 mb 0.00 in0.0 mm 0.00 in0.0 mm 0.00 in0.0 mm
03:19 AM 57.9°F14.4°C 52.9°F11.6°C 83% Calm Calm -- 29.58 in1001.7 mb 0.00 in0.0 mm 0.00 in0.0 mm 0.00 in0.0 mm
03:24 AM 57.6°F14.2°C 52.9°F11.6°C 84% Calm Calm -- 29.58 in1001.7 mb 0.00 in0.0 mm 0.00 in0.0 mm 0.00 in0.0 mm
03:29 AM 57.2°F14.0°C 52.5°F11.4°C 84% Calm Calm -- 29.59 in1002.0 mb 0.00 in0.0 mm 0.00 in0.0 mm 0.00 in0.0 mm
03:34 AM 56.8°F13.8°C 51.8°F11.0°C 83% Calm Calm -- 29.59 in1002.0 mb 0.00 in0.0 mm 0.00 in0.0 mm 0.00 in0.0 mm
03:39 AM 56.7°F13.7°C 51.6°F10.9°C 83% Calm Calm -- 29.59 in1002.0 mb 0.00 in0.0 mm 0.00 in0.0 mm 0.00 in0.0 mm
03:44 AM 56.5°F13.6°C 51.4°F10.8°C 83% Calm Calm -- 29.59 in1002.0 mb 0.00 in0.0 mm 0.00 in0.0 mm 0.00 in0.0 mm
03:49 AM 56.3°F13.5°C 51.6°F10.9°C 84% Calm Calm -- 29.58 in1001.7 mb 0.00 in0.0 mm 0.00 in0.0 mm 0.00 in0.0 mm
03:54 AM 56.1°F13.4°C 51.1°F10.6°C 83% Calm Calm -- 29.60 in1002.4 mb 0.00 in0.0 mm 0.00 in0.0 mm 0.00 in0.0 mm
03:59 AM 55.9°F13.3°C 49.3°F9.6°C 78% 0.4 mph NW0.6 kmh NW 2.5 mph4.0 kmh 29.59 in1002.0 mb 0.00 in0.0 mm 0.00 in0.0 mm 0.00 in0.0 mm
04:04 AM 55.9°F13.3°C 48.6°F9.2°C 76% 0.2 mph S0.3 kmh S 2.5 mph4.0 kmh 29.60 in1002.4 mb 0.00 in0.0 mm 0.00 in0.0 mm 0.00 in0.0 mm
04:09 AM 55.9°F13.3°C 47.5°F8.6°C 73% 0.9 mph WSW1.4 kmh WSW 2.5 mph4.0 kmh 29.60 in1002.4 mb 0.00 in0.0 mm 0.00 in0.0 mm 0.00 in0.0 mm
04:14 AM 55.9°F13.3°C 46.4°F8.0°C 70% 2.9 mph SSE4.7 kmh SSE 4.9 mph7.9 kmh 29.60 in1002.4 mb 0.00 in0.0 mm 0.00 in0.0 mm 0.00 in0.0 mm
04:19 AM 56.1°F13.4°C 45.0°F7.2°C 66% 3.4 mph WSW5.5 kmh WSW 4.9 mph7.9 kmh 29.60 in1002.4 mb 0.00 in0.0 mm 0.00 in0.0 mm 0.00 in0.0 mm
04:24 AM 56.5°F13.6°C 43.2°F6.2°C 61% 1.8 mph SW2.9 kmh SW 2.5 mph4.0 kmh 29.61 in1002.7 mb 0.00 in0.0 mm 0.00 in0.0 mm 0.00 in0.0 mm
04:29 AM 56.8°F13.8°C 37.9°F3.3°C 49% 6.7 mph N10.8 kmh N 12.3 mph19.8 kmh 29.61 in1002.7 mb 0.00 in0.0 mm 0.00 in0.0 mm 0.00 in0.0 mm
04:34 AM 57.0°F13.9°C 37.6°F3.1°C 48% 6.0 mph NNW9.7 kmh NNW 9.8 mph15.8 kmh 29.63 in1003.4 mb 0.00 in0.0 mm 0.00 in0.0 mm 0.00 in0.0 mm
04:39 AM 57.2°F14.0°C 36.7°F2.6°C 46% 9.6 mph NNE15.4 kmh NNE 15.0 mph24.1 kmh 29.63 in1003.4 mb 0.00 in0.0 mm 0.00 in0.0 mm 0.00 in0.0 mm
04:44 AM 57.2°F14.0°C 37.8°F3.2°C 48% 8.9 mph N14.3 kmh N 15.0 mph24.1 kmh 29.64 in1003.7 mb 0.00 in0.0 mm 0.00 in0.0 mm 0.00 in0.0 mm
04:49 AM 56.8°F13.8°C 37.9°F3.3°C 49% 7.6 mph N12.2 kmh N 12.3 mph19.8 kmh 29.63 in1003.4 mb 0.00 in0.0 mm 0.00 in0.0 mm 0.00 in0.0 mm
04:54 AM 56.3°F13.5°C 38.5°F3.6°C 51% 4.5 mph NW7.2 kmh NW 7.4 mph11.9 kmh 29.64 in1003.7 mb 0.00 in0.0 mm 0.00 in0.0 mm 0.00 in0.0 mm
04:59 AM 55.6°F13.1°C 37.8°F3.2°C 51% 4.3 mph NNW6.9 kmh NNW 7.4 mph11.9 kmh 29.64 in1003.7 mb 0.00 in0.0 mm 0.00 in0.0 mm 0.00 in0.0 mm
05:04 AM 54.9°F12.7°C 37.0°F2.8°C 51% 4.3 mph SSW6.9 kmh SSW 7.4 mph11.9 kmh 29.65 in1004.1 mb 0.00 in0.0 mm 0.00 in0.0 mm 0.00 in0.0 mm
05:09 AM 54.1°F12.3°C 36.9°F2.7°C 52% 3.6 mph N5.8 kmh N 4.9 mph7.9 kmh 29.64 in1003.7 mb 0.00 in0.0 mm 0.00 in0.0 mm 0.00 in0.0 mm
05:14 AM 53.6°F12.0°C 36.5°F2.5°C 52% 3.6 mph N5.8 kmh N 7.4 mph11.9 kmh 29.66 in1004.4 mb 0.00 in0.0 mm 0.00 in0.0 mm 0.00 in0.0 mm
05:19 AM 53.2°F11.8°C 36.1°F2.3°C 52% 1.3 mph SW2.1 kmh SW 2.5 mph4.0 kmh 29.66 in1004.4 mb 0.00 in0.0 mm 0.00 in0.0 mm 0.00 in0.0 mm
05:24 AM 52.9°F11.6°C 36.3°F2.4°C 53% 6.5 mph NW10.5 kmh NW 9.8 mph15.8 kmh 29.65 in1004.1 mb 0.00 in0.0 mm 0.00 in0.0 mm 0.00 in0.0 mm
05:29 AM 52.5°F11.4°C 35.4°F1.9°C 52% 3.6 mph W5.8 kmh W 4.9 mph7.9 kmh 29.65 in1004.1 mb 0.00 in0.0 mm 0.00 in0.0 mm 0.00 in0.0 mm
05:34 AM 52.3°F11.3°C 35.8°F2.1°C 53% 2.9 mph NNE4.7 kmh NNE 4.9 mph7.9 kmh 29.67 in1004.7 mb 0.00 in0.0 mm 0.00 in0.0 mm 0.00 in0.0 mm
05:39 AM 52.0°F11.1°C 34.5°F1.4°C 51% 6.5 mph W10.5 kmh W 12.3 mph19.8 kmh 29.66 in1004.4 mb 0.00 in0.0 mm 0.00 in0.0 mm 0.00 in0.0 mm
05:44 AM 51.8°F11.0°C 32.7°F0.4°C 48% 7.6 mph NNW12.2 kmh NNW 12.3 mph19.8 kmh 29.65 in1004.1 mb 0.00 in0.0 mm 0.00 in0.0 mm 0.00 in0.0 mm
05:49 AM 51.6°F10.9°C 33.1°F0.6°C 49% 2.9 mph NE4.7 kmh NE 7.4 mph11.9 kmh 29.66 in1004.4 mb 0.00 in0.0 mm 0.00 in0.0 mm 0.00 in0.0 mm
05:54 AM 51.6°F10.9°C 32.5°F0.3°C 48% 7.6 mph W12.2 kmh W 12.3 mph19.8 kmh 29.65 in1004.1 mb 0.00 in0.0 mm 0.00 in0.0 mm 0.00 in0.0 mm
05:59 AM 51.4°F10.8°C 32.9°F0.5°C 49% 13.6 mph W21.9 kmh W 17.4 mph28.0 kmh 29.65 in1004.1 mb 0.00 in0.0 mm 0.00 in0.0 mm 0.00 in0.0 mm
06:04 AM 51.3°F10.7°C 32.7°F0.4°C 49% 5.8 mph ENE9.3 kmh ENE 7.4 mph11.9 kmh 29.65 in1004.1 mb 0.00 in0.0 mm 0.00 in0.0 mm 0.00 in0.0 mm
06:09 AM 51.1°F10.6°C 33.1°F0.6°C 50% 1.3 mph NNE2.1 kmh NNE 2.5 mph4.0 kmh 29.67 in1004.7 mb 0.00 in0.0 mm 0.00 in0.0 mm 0.00 in0.0 mm
06:14 AM 50.9°F10.5°C 33.4°F0.8°C 51% 7.2 mph NW11.6 kmh NW 9.8 mph15.8 kmh 29.67 in1004.7 mb 0.00 in0.0 mm 0.00 in0.0 mm 0.00 in0.0 mm
06:19 AM 50.7°F10.4°C 33.3°F0.7°C 51% 10.3 mph SSE16.6 kmh SSE 15.0 mph24.1 kmh 29.67 in1004.7 mb 0.00 in0.0 mm 0.00 in0.0 mm 0.00 in0.0 mm
06:24 AM 50.5°F10.3°C 33.1°F0.6°C 51% 7.4 mph SW11.9 kmh SW 9.8 mph15.8 kmh 29.68 in1005.1 mb 0.00 in0.0 mm 0.00 in0.0 mm 0.00 in0.0 mm
06:29 AM 50.2°F10.1°C 31.8°F-0.1°C 49% 9.6 mph W15.4 kmh W 15.0 mph24.1 kmh 29.68 in1005.1 mb 0.00 in0.0 mm 0.00 in0.0 mm 0.00 in0.0 mm
06:34 AM 50.0°F10.0°C 32.2°F0.1°C 50% 2.9 mph W4.7 kmh W 7.4 mph11.9 kmh 29.70 in1005.8 mb 0.00 in0.0 mm 0.00 in0.0 mm 0.00 in0.0 mm
06:39 AM 49.6°F9.8°C 31.8°F-0.1°C 50% 8.1 mph WNW13.0 kmh WNW 12.3 mph19.8 kmh 29.70 in1005.8 mb 0.00 in0.0 mm 0.00 in0.0 mm 0.00 in0.0 mm
06:44 AM 49.3°F9.6°C 31.5°F-0.3°C 50% 12.1 mph NNE19.5 kmh NNE 17.4 mph28.0 kmh 29.71 in1006.1 mb 0.00 in0.0 mm 0.00 in0.0 mm 0.00 in0.0 mm
06:49 AM 48.9°F9.4°C 30.6°F-0.8°C 49% 15.4 mph NNW24.8 kmh NNW 19.9 mph32.0 kmh 29.70 in1005.8 mb 0.00 in0.0 mm 0.00 in0.0 mm 0.00 in0.0 mm
06:54 AM 48.7°F9.3°C 30.4°F-0.9°C 49% 10.3 mph W16.6 kmh W 15.0 mph24.1 kmh 29.72 in1006.4 mb 0.00 in0.0 mm 0.00 in0.0 mm 0.00 in0.0 mm
06:59 AM 48.6°F9.2°C 30.7°F-0.7°C 50% 11.9 mph W19.2 kmh W 17.4 mph28.0 kmh 29.73 in1006.8 mb 0.00 in0.0 mm 0.00 in0.0 mm 0.00 in0.0 mm
07:04 AM 48.2°F9.0°C 30.4°F-0.9°C 50% 3.4 mph NNW5.5 kmh NNW 4.9 mph7.9 kmh 29.73 in1006.8 mb 0.00 in0.0 mm 0.00 in0.0 mm 0.00 in0.0 mm
07:09 AM 48.0°F8.9°C 30.7°F-0.7°C 51% 6.5 mph NNW10.5 kmh NNW 7.4 mph11.9 kmh 29.73 in1006.8 mb 0.00 in0.0 mm 0.00 in0.0 mm 0.00 in0.0 mm
07:14 AM 47.8°F8.8°C 30.6°F-0.8°C 51% 8.1 mph WSW13.0 kmh WSW 9.8 mph15.8 kmh 29.73 in1006.8 mb 0.00 in0.0 mm 0.00 in0.0 mm 0.00 in0.0 mm
07:19 AM 47.8°F8.8°C 30.2°F-1.0°C 50% 12.1 mph NW19.5 kmh NW 15.0 mph24.1 kmh 29.74 in1007.1 mb 0.00 in0.0 mm 0.00 in0.0 mm 0.00 in0.0 mm
07:24 AM 47.7°F8.7°C 30.4°F-0.9°C 51% 7.2 mph NE11.6 kmh NE 9.8 mph15.8 kmh 29.75 in1007.5 mb 0.00 in0.0 mm 0.00 in0.0 mm 0.00 in0.0 mm
07:29 AM 47.5°F8.6°C 30.2°F-1.0°C 51% 4.5 mph W7.2 kmh W 7.4 mph11.9 kmh 29.75 in1007.5 mb 0.00 in0.0 mm 0.00 in0.0 mm 0.00 in0.0 mm
07:34 AM 47.3°F8.5°C 30.0°F-1.1°C 51% 5.6 mph NNE9.0 kmh NNE 9.8 mph15.8 kmh 29.75 in1007.5 mb 0.00 in0.0 mm 0.00 in0.0 mm 0.00 in0.0 mm
07:39 AM 47.3°F8.5°C 30.6°F-0.8°C 52% 8.9 mph WSW14.3 kmh WSW 12.3 mph19.8 kmh 29.75 in1007.5 mb 0.00 in0.0 mm 0.00 in0.0 mm 0.00 in0.0 mm
07:44 AM 47.1°F8.4°C 30.4°F-0.9°C 52% 5.8 mph W9.3 kmh W 9.8 mph15.8 kmh 29.75 in1007.5 mb 0.00 in0.0 mm 0.00 in0.0 mm 0.00 in0.0 mm
07:49 AM 46.9°F8.3°C 29.8°F-1.2°C 51% 11.9 mph NNE19.2 kmh NNE 15.0 mph24.1 kmh 29.75 in1007.5 mb 0.00 in0.0 mm 0.00 in0.0 mm 0.00 in0.0 mm
07:54 AM 46.9°F8.3°C 29.8°F-1.2°C 51% 11.2 mph NW18.0 kmh NW 15.0 mph24.1 kmh 29.76 in1007.8 mb 0.00 in0.0 mm 0.00 in0.0 mm 0.00 in0.0 mm
07:59 AM 46.9°F8.3°C 29.8°F-1.2°C 51% 8.1 mph NW13.0 kmh NW 12.3 mph19.8 kmh 29.76 in1007.8 mb 0.00 in0.0 mm 0.00 in0.0 mm 0.00 in0.0 mm
08:04 AM 46.8°F8.2°C 29.7°F-1.3°C 51% 10.7 mph WNW17.2 kmh WNW 12.3 mph19.8 kmh 29.77 in1008.1 mb 0.00 in0.0 mm 0.00 in0.0 mm 0.00 in0.0 mm
08:09 AM 46.8°F8.2°C 30.0°F-1.1°C 52% 9.2 mph N14.8 kmh N 15.0 mph24.1 kmh 29.76 in1007.8 mb 0.00 in0.0 mm 0.00 in0.0 mm 0.00 in0.0 mm
08:14 AM 46.6°F8.1°C 29.8°F-1.2°C 52% 3.4 mph NNE5.5 kmh NNE 4.9 mph7.9 kmh 29.78 in1008.5 mb 0.00 in0.0 mm 0.00 in0.0 mm 0.00 in0.0 mm
08:19 AM 46.6°F8.1°C 29.8°F-1.2°C 52% 15.0 mph NW24.1 kmh NW 19.9 mph32.0 kmh 29.79 in1008.8 mb 0.00 in0.0 mm 0.00 in0.0 mm 0.00 in0.0 mm
08:24 AM 46.4°F8.0°C 29.8°F-1.2°C 52% 11.9 mph NNW19.2 kmh NNW 15.0 mph24.1 kmh 29.80 in1009.1 mb 0.00 in0.0 mm 0.00 in0.0 mm 0.00 in0.0 mm
08:29 AM 46.2°F7.9°C 29.7°F-1.3°C 52% 8.7 mph N14.0 kmh N 12.3 mph19.8 kmh 29.79 in1008.8 mb 0.00 in0.0 mm 0.00 in0.0 mm 0.00 in0.0 mm
08:34 AM 46.2°F7.9°C 29.7°F-1.3°C 52% 7.6 mph N12.2 kmh N 9.8 mph15.8 kmh 29.79 in1008.8 mb 0.00 in0.0 mm 0.00 in0.0 mm 0.00 in0.0 mm
08:39 AM 46.0°F7.8°C 29.5°F-1.4°C 52% 10.5 mph NE16.9 kmh NE 17.4 mph28.0 kmh 29.80 in1009.1 mb 0.00 in0.0 mm 0.00 in0.0 mm 0.00 in0.0 mm
08:44 AM 45.9°F7.7°C 29.3°F-1.5°C 52% 9.6 mph N15.4 kmh N 12.3 mph19.8 kmh 29.81 in1009.5 mb 0.05 in1.3 mm 0.60 in15.2 mm 0.05 in1.3 mm
08:49 AM 45.5°F7.5°C 28.9°F-1.7°C 52% 11.4 mph WSW18.3 kmh WSW 17.4 mph28.0 kmh 29.83 in1010.2 mb 0.05 in1.3 mm 0.00 in0.0 mm 0.05 in1.3 mm
08:54 AM 45.3°F7.4°C 28.8°F-1.8°C 52% 11.9 mph N19.2 kmh N 15.0 mph24.1 kmh 29.83 in1010.2 mb 0.05 in1.3 mm 0.00 in0.0 mm 0.05 in1.3 mm
08:59 AM 45.0°F7.2°C 28.4°F-2.0°C 52% 7.4 mph NNW11.9 kmh NNW 12.3 mph19.8 kmh 29.83 in1010.2 mb 0.05 in1.3 mm 0.00 in0.0 mm 0.05 in1.3 mm
09:04 AM 44.8°F7.1°C 28.2°F-2.1°C 52% 8.1 mph E13.0 kmh E 12.3 mph19.8 kmh 29.83 in1010.2 mb 0.00 in0.0 mm 0.00 in0.0 mm 0.05 in1.3 mm
09:09 AM 44.6°F7.0°C 28.0°F-2.2°C 52% 9.8 mph NNE15.8 kmh NNE 12.3 mph19.8 kmh 29.82 in1009.8 mb 0.00 in0.0 mm 0.00 in0.0 mm 0.05 in1.3 mm
09:14 AM 44.6°F7.0°C 28.0°F-2.2°C 52% 15.2 mph NW24.5 kmh NW 22.4 mph36.0 kmh 29.83 in1010.2 mb 0.00 in0.0 mm 0.00 in0.0 mm 0.05 in1.3 mm
09:19 AM 44.6°F7.0°C 28.0°F-2.2°C 52% 4.9 mph NNW7.9 kmh NNW 4.9 mph7.9 kmh 29.83 in1010.2 mb 0.00 in0.0 mm 0.00 in0.0 mm 0.05 in1.3 mm
09:24 AM 44.6°F7.0°C 28.0°F-2.2°C 52% 12.8 mph NW20.6 kmh NW 15.0 mph24.1 kmh 29.84 in1010.5 mb 0.00 in0.0 mm 0.00 in0.0 mm 0.05 in1.3 mm
09:29 AM 44.8°F7.1°C 27.9°F-2.3°C 51% 8.9 mph N14.3 kmh N 12.3 mph19.8 kmh 29.84 in1010.5 mb 0.00 in0.0 mm 0.00 in0.0 mm 0.05 in1.3 mm
09:34 AM 45.0°F7.2°C 27.5°F-2.5°C 50% 10.7 mph NE17.2 kmh NE 17.4 mph28.0 kmh 29.84 in1010.5 mb 0.00 in0.0 mm 0.00 in0.0 mm 0.05 in1.3 mm
09:39 AM 45.0°F7.2°C 27.0°F-2.8°C 49% 5.8 mph SW9.3 kmh SW 7.4 mph11.9 kmh 29.86 in1011.2 mb 0.00 in0.0 mm 0.00 in0.0 mm 0.05 in1.3 mm
09:44 AM 45.1°F7.3°C 26.6°F-3.0°C 48% 10.7 mph N17.2 kmh N 15.0 mph24.1 kmh 29.86 in1011.2 mb 0.00 in0.0 mm 0.00 in0.0 mm 0.05 in1.3 mm
09:49 AM 45.1°F7.3°C 26.6°F-3.0°C 48% 15.2 mph N24.5 kmh N 17.4 mph28.0 kmh 29.86 in1011.2 mb 0.00 in0.0 mm 0.00 in0.0 mm 0.05 in1.3 mm
09:54 AM 45.1°F7.3°C 26.6°F-3.0°C 48% 8.1 mph N13.0 kmh N 12.3 mph19.8 kmh 29.86 in1011.2 mb 0.00 in0.0 mm 0.00 in0.0 mm 0.05 in1.3 mm
09:59 AM 45.1°F7.3°C 26.6°F-3.0°C 48% 6.0 mph N9.7 kmh N 9.8 mph15.8 kmh 29.88 in1011.9 mb 0.00 in0.0 mm 0.00 in0.0 mm 0.05 in1.3 mm
10:04 AM 45.3°F7.4°C 26.8°F-2.9°C 48% 15.0 mph ENE24.1 kmh ENE 19.9 mph32.0 kmh 29.88 in1011.9 mb 0.00 in0.0 mm 0.00 in0.0 mm 0.05 in1.3 mm
10:09 AM 45.3°F7.4°C 26.2°F-3.2°C 47% 15.4 mph NE24.8 kmh NE 17.4 mph28.0 kmh 29.88 in1011.9 mb 0.00 in0.0 mm 0.00 in0.0 mm 0.05 in1.3 mm
10:14 AM 45.5°F7.5°C 26.4°F-3.1°C 47% 12.3 mph WNW19.8 kmh WNW 17.4 mph28.0 kmh 29.88 in1011.9 mb 0.00 in0.0 mm 0.00 in0.0 mm 0.05 in1.3 mm
10:19 AM 45.7°F7.6°C 26.6°F-3.0°C 47% 13.0 mph ESE20.9 kmh ESE 17.4 mph28.0 kmh 29.89 in1012.2 mb 0.00 in0.0 mm 0.00 in0.0 mm 0.05 in1.3 mm
10:24 AM 45.9°F7.7°C 26.2°F-3.2°C 46% 6.7 mph N10.8 kmh N 7.4 mph11.9 kmh 29.89 in1012.2 mb 0.00 in0.0 mm 0.00 in0.0 mm 0.05 in1.3 mm
10:29 AM 46.0°F7.8°C 26.4°F-3.1°C 46% 8.1 mph NNW13.0 kmh NNW 9.8 mph15.8 kmh 29.89 in1012.2 mb 0.00 in0.0 mm 0.00 in0.0 mm 0.05 in1.3 mm
10:34 AM 46.2°F7.9°C 26.6°F-3.0°C 46% 7.6 mph ESE12.2 kmh ESE 15.0 mph24.1 kmh 29.90 in1012.5 mb 0.00 in0.0 mm 0.00 in0.0 mm 0.05 in1.3 mm
10:39 AM 46.6°F8.1°C 26.4°F-3.1°C 45% 9.6 mph NE15.4 kmh NE 12.3 mph19.8 kmh 29.89 in1012.2 mb 0.00 in0.0 mm 0.00 in0.0 mm 0.05 in1.3 mm
10:44 AM 46.8°F8.2°C 26.6°F-3.0°C 45% 10.3 mph NNE16.6 kmh NNE 12.3 mph19.8 kmh 29.89 in1012.2 mb 0.00 in0.0 mm 0.00 in0.0 mm 0.05 in1.3 mm
10:49 AM 47.1°F8.4°C 27.0°F-2.8°C 45% 9.8 mph N15.8 kmh N 12.3 mph19.8 kmh 29.89 in1012.2 mb 0.00 in0.0 mm 0.00 in0.0 mm 0.05 in1.3 mm
10:54 AM 47.3°F8.5°C 27.1°F-2.7°C 45% 2.0 mph N3.2 kmh N 4.9 mph7.9 kmh 29.90 in1012.5 mb 0.00 in0.0 mm 0.00 in0.0 mm 0.05 in1.3 mm
10:59 AM 47.5°F8.6°C 26.1°F-3.3°C 43% 3.6 mph NNE5.8 kmh NNE 4.9 mph7.9 kmh 29.90 in1012.5 mb 0.00 in0.0 mm 0.00 in0.0 mm 0.05 in1.3 mm
11:04 AM 47.7°F8.7°C 26.2°F-3.2°C 43% 10.5 mph NNW16.9 kmh NNW 12.3 mph19.8 kmh 29.91 in1012.9 mb 0.00 in0.0 mm 0.00 in0.0 mm 0.05 in1.3 mm
11:09 AM 47.8°F8.8°C 25.9°F-3.4°C 42% 4.9 mph SSW7.9 kmh SSW 7.4 mph11.9 kmh 29.90 in1012.5 mb 0.00 in0.0 mm 0.00 in0.0 mm 0.05 in1.3 mm
11:14 AM 48.2°F9.0°C 25.7°F-3.5°C 41% 11.2 mph NW18.0 kmh NW 15.0 mph24.1 kmh 29.91 in1012.9 mb 0.00 in0.0 mm 0.00 in0.0 mm 0.05 in1.3 mm
11:19 AM 48.4°F9.1°C 25.7°F-3.5°C 41% 12.3 mph WNW19.8 kmh WNW 17.4 mph28.0 kmh 29.91 in1012.9 mb 0.00 in0.0 mm 0.00 in0.0 mm 0.05 in1.3 mm
11:24 AM 48.7°F9.3°C 26.1°F-3.3°C 41% 6.5 mph NNW10.5 kmh NNW 9.8 mph15.8 kmh 29.91 in1012.9 mb 0.00 in0.0 mm 0.00 in0.0 mm 0.05 in1.3 mm
11:29 AM 48.9°F9.4°C 25.7°F-3.5°C 40% 11.2 mph NNW18.0 kmh NNW 15.0 mph24.1 kmh 29.91 in1012.9 mb 0.00 in0.0 mm 0.00 in0.0 mm 0.05 in1.3 mm
11:34 AM 49.3°F9.6°C 25.3°F-3.7°C 39% 13.6 mph NE21.9 kmh NE 17.4 mph28.0 kmh 29.91 in1012.9 mb 0.00 in0.0 mm 0.00 in0.0 mm 0.05 in1.3 mm
11:39 AM 49.3°F9.6°C 25.3°F-3.7°C 39% 8.3 mph ENE13.4 kmh ENE 9.8 mph15.8 kmh 29.92 in1013.2 mb 0.00 in0.0 mm 0.00 in0.0 mm 0.05 in1.3 mm
11:44 AM 49.5°F9.7°C 25.5°F-3.6°C 39% 4.5 mph NNE7.2 kmh NNE 7.4 mph11.9 kmh 29.92 in1013.2 mb 0.00 in0.0 mm 0.00 in0.0 mm 0.05 in1.3 mm
11:49 AM 49.8°F9.9°C 25.9°F-3.4°C 39% 4.0 mph NE6.4 kmh NE 7.4 mph11.9 kmh 29.91 in1012.9 mb 0.00 in0.0 mm 0.00 in0.0 mm 0.05 in1.3 mm
11:54 AM 50.2°F10.1°C 26.2°F-3.2°C 39% 7.6 mph SW12.2 kmh SW 9.8 mph15.8 kmh 29.92 in1013.2 mb 0.00 in0.0 mm 0.00 in0.0 mm 0.05 in1.3 mm
11:59 AM 50.4°F10.2°C 25.7°F-3.5°C 38% 9.2 mph NE14.8 kmh NE 17.4 mph28.0 kmh 29.92 in1013.2 mb 0.00 in0.0 mm 0.00 in0.0 mm 0.05 in1.3 mm
12:04 PM 50.7°F10.4°C 26.1°F-3.3°C 38% 3.6 mph SE5.8 kmh SE 7.4 mph11.9 kmh 29.92 in1013.2 mb 0.00 in0.0 mm 0.00 in0.0 mm 0.05 in1.3 mm
12:09 PM 50.9°F10.5°C 26.2°F-3.2°C 38% 11.4 mph NNE18.3 kmh NNE 15.0 mph24.1 kmh 29.93 in1013.5 mb 0.00 in0.0 mm 0.00 in0.0 mm 0.05 in1.3 mm
12:14 PM 51.3°F10.7°C 27.1°F-2.7°C 39% 5.6 mph N9.0 kmh N 7.4 mph11.9 kmh 29.92 in1013.2 mb 0.00 in0.0 mm 0.00 in0.0 mm 0.05 in1.3 mm
12:19 PM 51.6°F10.9°C 26.2°F-3.2°C 37% 12.1 mph NW19.5 kmh NW 17.4 mph28.0 kmh 29.92 in1013.2 mb 0.00 in0.0 mm 0.00 in0.0 mm 0.05 in1.3 mm
12:24 PM 52.0°F11.1°C 27.1°F-2.7°C 38% 6.7 mph WNW10.8 kmh WNW 9.8 mph15.8 kmh 29.92 in1013.2 mb 0.00 in0.0 mm 0.00 in0.0 mm 0.05 in1.3 mm
12:29 PM 52.3°F11.3°C 27.5°F-2.5°C 38% 8.9 mph W14.3 kmh W 9.8 mph15.8 kmh 29.92 in1013.2 mb 0.00 in0.0 mm 0.00 in0.0 mm 0.05 in1.3 mm
12:34 PM 52.5°F11.4°C 27.0°F-2.8°C 37% 4.5 mph NNW7.2 kmh NNW 4.9 mph7.9 kmh 29.92 in1013.2 mb 0.00 in0.0 mm 0.00 in0.0 mm 0.05 in1.3 mm
12:39 PM 52.9°F11.6°C 26.6°F-3.0°C 36% 9.2 mph 14.8 kmh 12.3 mph19.8 kmh 29.93 in1013.5 mb 0.00 in0.0 mm 0.00 in0.0 mm 0.05 in1.3 mm
12:44 PM 53.2°F11.8°C 26.2°F-3.2°C 35% 8.9 mph NNW14.3 kmh NNW 12.3 mph19.8 kmh 29.92 in1013.2 mb 0.00 in0.0 mm 0.00 in0.0 mm 0.05 in1.3 mm
12:49 PM 53.4°F11.9°C 27.1°F-2.7°C 36% 11.4 mph N18.3 kmh N 12.3 mph19.8 kmh 29.92 in1013.2 mb 0.00 in0.0 mm 0.00 in0.0 mm 0.05 in1.3 mm
12:54 PM 53.4°F11.9°C 27.1°F-2.7°C 36% 4.9 mph NE7.9 kmh NE 7.4 mph11.9 kmh 29.92 in1013.2 mb 0.00 in0.0 mm 0.00 in0.0 mm 0.05 in1.3 mm
12:59 PM 53.6°F12.0°C 28.0°F-2.2°C 37% 1.3 mph E2.1 kmh E 2.5 mph4.0 kmh 29.92 in1013.2 mb 0.00 in0.0 mm 0.00 in0.0 mm 0.05 in1.3 mm
01:04 PM 54.0°F12.2°C 27.0°F-2.8°C 35% 8.7 mph W14.0 kmh W 12.3 mph19.8 kmh 29.91 in1012.9 mb 0.00 in0.0 mm 0.00 in0.0 mm 0.05 in1.3 mm
01:09 PM 54.3°F12.4°C 28.0°F-2.2°C 36% 2.7 mph WSW4.3 kmh WSW 4.9 mph7.9 kmh 29.91 in1012.9 mb 0.00 in0.0 mm 0.00 in0.0 mm 0.05 in1.3 mm
01:14 PM 54.5°F12.5°C 26.8°F-2.9°C 34% 9.8 mph NNW15.8 kmh NNW 15.0 mph24.1 kmh 29.91 in1012.9 mb 0.00 in0.0 mm 0.00 in0.0 mm 0.05 in1.3 mm
01:19 PM 54.9°F12.7°C 27.7°F-2.4°C 35% 5.8 mph WSW9.3 kmh WSW 9.8 mph15.8 kmh 29.92 in1013.2 mb 0.00 in0.0 mm 0.00 in0.0 mm 0.05 in1.3 mm
01:24 PM 55.2°F12.9°C 27.3°F-2.6°C 34% 6.5 mph WNW10.5 kmh WNW 9.8 mph15.8 kmh 29.91 in1012.9 mb 0.00 in0.0 mm 0.00 in0.0 mm 0.05 in1.3 mm
01:29 PM 55.2°F12.9°C 27.3°F-2.6°C 34% 8.7 mph NNE14.0 kmh NNE 9.8 mph15.8 kmh 29.91 in1012.9 mb 0.00 in0.0 mm 0.00 in0.0 mm 0.05 in1.3 mm
01:34 PM 55.0°F12.8°C 25.7°F-3.5°C 32% 2.0 mph ENE3.2 kmh ENE 4.9 mph7.9 kmh 29.91 in1012.9 mb 0.00 in0.0 mm 0.00 in0.0 mm 0.05 in1.3 mm
01:39 PM 55.2°F12.9°C 25.9°F-3.4°C 32% 10.3 mph WNW16.6 kmh WNW 12.3 mph19.8 kmh 29.91 in1012.9 mb 0.00 in0.0 mm 0.00 in0.0 mm 0.05 in1.3 mm
01:44 PM 54.9°F12.7°C 24.1°F-4.4°C 30% 7.4 mph NE11.9 kmh NE 9.8 mph15.8 kmh 29.91 in1012.9 mb 0.00 in0.0 mm 0.00 in0.0 mm 0.05 in1.3 mm
01:49 PM 54.7°F12.6°C 25.3°F-3.7°C 32% 4.5 mph NW7.2 kmh NW 4.9 mph7.9 kmh 29.91 in1012.9 mb 0.00 in0.0 mm 0.00 in0.0 mm 0.05 in1.3 mm
01:54 PM 54.5°F12.5°C 24.4°F-4.2°C 31% 9.6 mph NW15.4 kmh NW 15.0 mph24.1 kmh 29.91 in1012.9 mb 0.00 in0.0 mm 0.00 in0.0 mm 0.05 in1.3 mm
01:59 PM 54.5°F12.5°C 23.7°F-4.6°C 30% 3.4 mph NNW5.5 kmh NNW 4.9 mph7.9 kmh 29.91 in1012.9 mb 0.00 in0.0 mm 0.00 in0.0 mm 0.05 in1.3 mm
02:04 PM 54.7°F12.6°C 23.9°F-4.5°C 30% 8.7 mph NE14.0 kmh NE 12.3 mph19.8 kmh 29.90 in1012.5 mb 0.00 in0.0 mm 0.00 in0.0 mm 0.05 in1.3 mm
02:09 PM 54.5°F12.5°C 23.0°F-5.0°C 29% 5.8 mph NNW9.3 kmh NNW 7.4 mph11.9 kmh 29.90 in1012.5 mb 0.00 in0.0 mm 0.00 in0.0 mm 0.05 in1.3 mm
02:14 PM 54.7°F12.6°C 23.0°F-5.0°C 29% 2.5 mph N4.0 kmh N 4.9 mph7.9 kmh 29.89 in1012.2 mb 0.00 in0.0 mm 0.00 in0.0 mm 0.05 in1.3 mm
02:19 PM 54.9°F12.7°C 21.6°F-5.8°C 27% 5.1 mph NE8.2 kmh NE 7.4 mph11.9 kmh 29.90 in1012.5 mb 0.00 in0.0 mm 0.00 in0.0 mm 0.05 in1.3 mm
02:24 PM 55.2°F12.9°C 21.9°F-5.6°C 27% 19.0 mph N30.6 kmh N 24.8 mph39.9 kmh 29.90 in1012.5 mb 0.00 in0.0 mm 0.00 in0.0 mm 0.05 in1.3 mm
02:29 PM 55.2°F12.9°C 22.6°F-5.2°C 28% 10.3 mph NW16.6 kmh NW 12.3 mph19.8 kmh 29.90 in1012.5 mb 0.00 in0.0 mm 0.00 in0.0 mm 0.05 in1.3 mm
02:34 PM 55.2°F12.9°C 23.5°F-4.7°C 29% 1.3 mph W2.1 kmh W 2.5 mph4.0 kmh 29.90 in1012.5 mb 0.00 in0.0 mm 0.00 in0.0 mm 0.05 in1.3 mm
02:39 PM 55.4°F13.0°C 21.9°F-5.6°C 27% 6.0 mph ENE9.7 kmh ENE 9.8 mph15.8 kmh 29.90 in1012.5 mb 0.00 in0.0 mm 0.00 in0.0 mm 0.05 in1.3 mm
02:44 PM 55.6°F13.1°C 22.1°F-5.5°C 27% 5.8 mph N9.3 kmh N 9.8 mph15.8 kmh 29.89 in1012.2 mb 0.00 in0.0 mm 0.00 in0.0 mm 0.05 in1.3 mm
02:49 PM 55.4°F13.0°C 21.9°F-5.6°C 27% 8.7 mph NE14.0 kmh NE 12.3 mph19.8 kmh 29.89 in1012.2 mb 0.00 in0.0 mm 0.00 in0.0 mm 0.05 in1.3 mm
02:54 PM 55.6°F13.1°C 22.1°F-5.5°C 27% 3.4 mph WNW5.5 kmh WNW 4.9 mph7.9 kmh 29.89 in1012.2 mb 0.00 in0.0 mm 0.00 in0.0 mm 0.05 in1.3 mm
02:59 PM 55.8°F13.2°C 22.3°F-5.4°C 27% 4.9 mph NW7.9 kmh NW 9.8 mph15.8 kmh 29.89 in1012.2 mb 0.00 in0.0 mm 0.00 in0.0 mm 0.05 in1.3 mm
03:04 PM 55.9°F13.3°C 22.5°F-5.3°C 27% 2.7 mph NE4.3 kmh NE 4.9 mph7.9 kmh 29.88 in1011.9 mb 0.00 in0.0 mm 0.00 in0.0 mm 0.05 in1.3 mm
03:09 PM 56.1°F13.4°C 22.6°F-5.2°C 27% 8.1 mph W13.0 kmh W 9.8 mph15.8 kmh 29.89 in1012.2 mb 0.00 in0.0 mm 0.00 in0.0 mm 0.05 in1.3 mm
03:14 PM 56.5°F13.6°C 23.0°F-5.0°C 27% 1.8 mph S2.9 kmh S 2.5 mph4.0 kmh 29.89 in1012.2 mb 0.00 in0.0 mm 0.00 in0.0 mm 0.05 in1.3 mm
03:19 PM 56.7°F13.7°C 22.1°F-5.5°C 26% 6.5 mph NNW10.5 kmh NNW 7.4 mph11.9 kmh 29.88 in1011.9 mb 0.00 in0.0 mm 0.00 in0.0 mm 0.05 in1.3 mm
03:24 PM 56.8°F13.8°C 22.3°F-5.4°C 26% 5.1 mph W8.2 kmh W 7.4 mph11.9 kmh 29.89 in1012.2 mb 0.00 in0.0 mm 0.00 in0.0 mm 0.05 in1.3 mm
03:29 PM 57.0°F13.9°C 21.6°F-5.8°C 25% 2.7 mph NE4.3 kmh NE 4.9 mph7.9 kmh 29.88 in1011.9 mb 0.00 in0.0 mm 0.00 in0.0 mm 0.05 in1.3 mm
03:34 PM 57.2°F14.0°C 20.8°F-6.2°C 24% 5.1 mph W8.2 kmh W 7.4 mph11.9 kmh 29.89 in1012.2 mb 0.00 in0.0 mm 0.00 in0.0 mm 0.05 in1.3 mm
03:39 PM 57.4°F14.1°C 21.9°F-5.6°C 25% 10.7 mph W17.2 kmh W 17.4 mph28.0 kmh 29.89 in1012.2 mb 0.00 in0.0 mm 0.00 in0.0 mm 0.05 in1.3 mm
03:44 PM 57.4°F14.1°C 23.7°F-4.6°C 27% 7.2 mph N11.6 kmh N 9.8 mph15.8 kmh 29.88 in1011.9 mb 0.00 in0.0 mm 0.00 in0.0 mm 0.05 in1.3 mm
03:49 PM 57.6°F14.2°C 22.1°F-5.5°C 25% 4.9 mph NNW7.9 kmh NNW 4.9 mph7.9 kmh 29.88 in1011.9 mb 0.00 in0.0 mm 0.00 in0.0 mm 0.05 in1.3 mm
03:54 PM 57.7°F14.3°C 22.1°F-5.5°C 25% 3.6 mph WNW5.8 kmh WNW 4.9 mph7.9 kmh 29.89 in1012.2 mb 0.00 in0.0 mm 0.00 in0.0 mm 0.05 in1.3 mm
03:59 PM 57.7°F14.3°C 21.2°F-6.0°C 24% 5.8 mph NNE9.3 kmh NNE 9.8 mph15.8 kmh 29.89 in1012.2 mb 0.00 in0.0 mm 0.00 in0.0 mm 0.05 in1.3 mm
04:04 PM 57.7°F14.3°C 22.1°F-5.5°C 25% 4.0 mph N6.4 kmh N 7.4 mph11.9 kmh 29.88 in1011.9 mb 0.00 in0.0 mm 0.00 in0.0 mm 0.05 in1.3 mm
04:09 PM 57.9°F14.4°C 21.4°F-5.9°C 24% 6.7 mph N10.8 kmh N 9.8 mph15.8 kmh 29.88 in1011.9 mb 0.00 in0.0 mm 0.00 in0.0 mm 0.05 in1.3 mm
04:14 PM 57.9°F14.4°C 22.3°F-5.4°C 25% 4.5 mph ENE7.2 kmh ENE 4.9 mph7.9 kmh 29.88 in1011.9 mb 0.00 in0.0 mm 0.00 in0.0 mm 0.05 in1.3 mm
04:19 PM 58.1°F14.5°C 20.5°F-6.4°C 23% 8.7 mph N14.0 kmh N 12.3 mph19.8 kmh 29.89 in1012.2 mb 0.00 in0.0 mm 0.00 in0.0 mm 0.05 in1.3 mm
04:24 PM 57.9°F14.4°C 21.4°F-5.9°C 24% 7.6 mph WNW12.2 kmh WNW 9.8 mph15.8 kmh 29.88 in1011.9 mb 0.00 in0.0 mm 0.00 in0.0 mm 0.05 in1.3 mm
04:29 PM 57.9°F14.4°C 21.4°F-5.9°C 24% 6.5 mph NW10.5 kmh NW 12.3 mph19.8 kmh 29.89 in1012.2 mb 0.00 in0.0 mm 0.00 in0.0 mm 0.05 in1.3 mm
04:34 PM 57.9°F14.4°C 22.3°F-5.4°C 25% 2.7 mph NNW4.3 kmh NNW 4.9 mph7.9 kmh 29.89 in1012.2 mb 0.00 in0.0 mm 0.00 in0.0 mm 0.05 in1.3 mm
04:39 PM 57.9°F14.4°C 21.4°F-5.9°C 24% 5.6 mph NNW9.0 kmh NNW 7.4 mph11.9 kmh 29.89 in1012.2 mb 0.00 in0.0 mm 0.00 in0.0 mm 0.05 in1.3 mm
04:44 PM 57.9°F14.4°C 21.4°F-5.9°C 24% 4.5 mph NE7.2 kmh NE 7.4 mph11.9 kmh 29.90 in1012.5 mb 0.00 in0.0 mm 0.00 in0.0 mm 0.05 in1.3 mm
04:49 PM 57.9°F14.4°C 21.4°F-5.9°C 24% 1.3 mph NNW2.1 kmh NNW 2.5 mph4.0 kmh 29.91 in1012.9 mb 0.00 in0.0 mm 0.00 in0.0 mm 0.05 in1.3 mm
04:54 PM 58.1°F14.5°C 21.6°F-5.8°C 24% 6.0 mph WSW9.7 kmh WSW 7.4 mph11.9 kmh 29.90 in1012.5 mb 0.00 in0.0 mm 0.00 in0.0 mm 0.05 in1.3 mm
04:59 PM 57.9°F14.4°C 21.4°F-5.9°C 24% 5.8 mph N9.3 kmh N 9.8 mph15.8 kmh 29.89 in1012.2 mb 0.00 in0.0 mm 0.00 in0.0 mm 0.05 in1.3 mm
05:04 PM 57.9°F14.4°C 21.4°F-5.9°C 24% 7.4 mph N11.9 kmh N 9.8 mph15.8 kmh 29.90 in1012.5 mb 0.00 in0.0 mm 0.00 in0.0 mm 0.05 in1.3 mm
05:09 PM 57.7°F14.3°C 22.1°F-5.5°C 25% 6.5 mph NNW10.5 kmh NNW 9.8 mph15.8 kmh 29.90 in1012.5 mb 0.00 in0.0 mm 0.00 in0.0 mm 0.05 in1.3 mm
05:14 PM 57.7°F14.3°C 21.2°F-6.0°C 24% 11.9 mph E19.2 kmh E 17.4 mph28.0 kmh 29.91 in1012.9 mb 0.00 in0.0 mm 0.00 in0.0 mm 0.05 in1.3 mm
05:19 PM 57.7°F14.3°C 21.2°F-6.0°C 24% 3.6 mph N5.8 kmh N 4.9 mph7.9 kmh 29.91 in1012.9 mb 0.00 in0.0 mm 0.00 in0.0 mm 0.05 in1.3 mm
05:24 PM 57.6°F14.2°C 20.1°F-6.6°C 23% 7.4 mph NNW11.9 kmh NNW 12.3 mph19.8 kmh 29.91 in1012.9 mb 0.00 in0.0 mm 0.00 in0.0 mm 0.05 in1.3 mm
05:29 PM 57.4°F14.1°C 20.8°F-6.2°C 24% 8.1 mph NW13.0 kmh NW 9.8 mph15.8 kmh 29.91 in1012.9 mb 0.00 in0.0 mm 0.00 in0.0 mm 0.05 in1.3 mm
05:34 PM 57.4°F14.1°C 21.9°F-5.6°C 25% 6.5 mph N10.5 kmh N 9.8 mph15.8 kmh 29.90 in1012.5 mb 0.00 in0.0 mm 0.00 in0.0 mm 0.05 in1.3 mm
05:39 PM 57.2°F14.0°C 21.7°F-5.7°C 25% 6.5 mph N10.5 kmh N 9.8 mph15.8 kmh 29.91 in1012.9 mb 0.00 in0.0 mm 0.00 in0.0 mm 0.05 in1.3 mm
05:44 PM 57.2°F14.0°C 21.7°F-5.7°C 25% 0.2 mph ENE0.3 kmh ENE 2.5 mph4.0 kmh 29.91 in1012.9 mb 0.00 in0.0 mm 0.00 in0.0 mm 0.05 in1.3 mm
05:49 PM 57.0°F13.9°C 21.6°F-5.8°C 25% 3.6 mph ENE5.8 kmh ENE 7.4 mph11.9 kmh 29.91 in1012.9 mb 0.00 in0.0 mm 0.00 in0.0 mm 0.05 in1.3 mm
05:54 PM 57.0°F13.9°C 22.5°F-5.3°C 26% 2.7 mph E4.3 kmh E 4.9 mph7.9 kmh 29.91 in1012.9 mb 0.00 in0.0 mm 0.00 in0.0 mm 0.05 in1.3 mm
05:59 PM 57.0°F13.9°C 21.6°F-5.8°C 25% 5.1 mph NW8.2 kmh NW 7.4 mph11.9 kmh 29.91 in1012.9 mb 0.00 in0.0 mm 0.00 in0.0 mm 0.05 in1.3 mm
06:04 PM 57.0°F13.9°C 22.5°F-5.3°C 26% 4.0 mph SW6.4 kmh SW 4.9 mph7.9 kmh 29.91 in1012.9 mb 0.00 in0.0 mm 0.00 in0.0 mm 0.05 in1.3 mm
06:09 PM 56.8°F13.8°C 22.3°F-5.4°C 26% 6.5 mph NNW10.5 kmh NNW 9.8 mph15.8 kmh 29.91 in1012.9 mb 0.00 in0.0 mm 0.00 in0.0 mm 0.05 in1.3 mm
06:14 PM 56.7°F13.7°C 22.1°F-5.5°C 26% 9.8 mph WSW15.8 kmh WSW 15.0 mph24.1 kmh 29.91 in1012.9 mb 0.00 in0.0 mm 0.00 in0.0 mm 0.05 in1.3 mm
06:19 PM 56.5°F13.6°C 23.0°F-5.0°C 27% 0.9 mph NE1.4 kmh NE 2.5 mph4.0 kmh 29.91 in1012.9 mb 0.00 in0.0 mm 0.00 in0.0 mm 0.05 in1.3 mm
06:24 PM 56.3°F13.5°C 22.8°F-5.1°C 27% 0.4 mph SE0.6 kmh SE 2.5 mph4.0 kmh 29.91 in1012.9 mb 0.00 in0.0 mm 0.00 in0.0 mm 0.05 in1.3 mm
06:29 PM 56.1°F13.4°C 23.5°F-4.7°C 28% 3.4 mph NE5.5 kmh NE 4.9 mph7.9 kmh 29.92 in1013.2 mb 0.00 in0.0 mm 0.00 in0.0 mm 0.05 in1.3 mm
06:34 PM 55.8°F13.2°C 24.1°F-4.4°C 29% 2.7 mph NW4.3 kmh NW 4.9 mph7.9 kmh 29.91 in1012.9 mb 0.00 in0.0 mm 0.00 in0.0 mm 0.05 in1.3 mm
06:39 PM 55.4°F13.0°C 24.4°F-4.2°C 30% 4.5 mph NNE7.2 kmh NNE 7.4 mph11.9 kmh 29.93 in1013.5 mb 0.00 in0.0 mm 0.00 in0.0 mm 0.05 in1.3 mm
06:44 PM 54.9°F12.7°C 24.8°F-4.0°C 31% 2.0 mph N3.2 kmh N 2.5 mph4.0 kmh 29.92 in1013.2 mb 0.00 in0.0 mm 0.00 in0.0 mm 0.05 in1.3 mm
06:49 PM 54.5°F12.5°C 24.4°F-4.2°C 31% 4.5 mph NE7.2 kmh NE 7.4 mph11.9 kmh 29.93 in1013.5 mb 0.00 in0.0 mm 0.00 in0.0 mm 0.05 in1.3 mm
06:54 PM 54.0°F12.2°C 23.2°F-4.9°C 30% 3.6 mph N5.8 kmh N 4.9 mph7.9 kmh 29.93 in1013.5 mb 0.00 in0.0 mm 0.00 in0.0 mm 0.05 in1.3 mm
06:59 PM 53.6°F12.0°C 23.0°F-5.0°C 30% 4.3 mph NNE6.9 kmh NNE 7.4 mph11.9 kmh 29.93 in1013.5 mb 0.00 in0.0 mm 0.00 in0.0 mm 0.05 in1.3 mm
07:04 PM 53.1°F11.7°C 22.5°F-5.3°C 30% 1.8 mph E2.9 kmh E 2.5 mph4.0 kmh 29.94 in1013.9 mb 0.00 in0.0 mm 0.00 in0.0 mm 0.05 in1.3 mm
07:09 PM 52.7°F11.5°C 23.0°F-5.0°C 31% Calm Calm -- 29.94 in1013.9 mb 0.00 in0.0 mm 0.00 in0.0 mm 0.05 in1.3 mm
07:14 PM 52.5°F11.4°C 23.5°F-4.7°C 32% 0.9 mph NE1.4 kmh NE 2.5 mph4.0 kmh 29.94 in1013.9 mb 0.00 in0.0 mm 0.00 in0.0 mm 0.05 in1.3 mm
07:19 PM 52.2°F11.2°C 23.9°F-4.5°C 33% Calm Calm -- 29.95 in1014.2 mb 0.00 in0.0 mm 0.00 in0.0 mm 0.05 in1.3 mm
07:24 PM 51.6°F10.9°C 24.3°F-4.3°C 34% 2.0 mph NE3.2 kmh NE 2.5 mph4.0 kmh 29.95 in1014.2 mb 0.00 in0.0 mm 0.00 in0.0 mm 0.05 in1.3 mm
07:29 PM 51.3°F10.7°C 23.9°F-4.5°C 34% 1.1 mph NW1.8 kmh NW 2.5 mph4.0 kmh 29.95 in1014.2 mb 0.00 in0.0 mm 0.00 in0.0 mm 0.05 in1.3 mm
07:34 PM 50.9°F10.5°C 23.5°F-4.7°C 34% 0.4 mph E0.6 kmh E 2.5 mph4.0 kmh 29.96 in1014.6 mb 0.00 in0.0 mm 0.00 in0.0 mm 0.05 in1.3 mm
07:39 PM 50.5°F10.3°C 23.2°F-4.9°C 34% 1.3 mph ENE2.1 kmh ENE 2.5 mph4.0 kmh 29.97 in1014.9 mb 0.00 in0.0 mm 0.00 in0.0 mm 0.05 in1.3 mm
07:44 PM 50.2°F10.1°C 23.0°F-5.0°C 34% Calm Calm -- 29.97 in1014.9 mb 0.00 in0.0 mm 0.00 in0.0 mm 0.05 in1.3 mm
07:49 PM 49.8°F9.9°C 22.6°F-5.2°C 34% 4.5 mph NE7.2 kmh NE 7.4 mph11.9 kmh 29.98 in1015.2 mb 0.00 in0.0 mm 0.00 in0.0 mm 0.05 in1.3 mm
07:54 PM 49.6°F9.8°C 22.5°F-5.3°C 34% 0.9 mph N1.4 kmh N 2.5 mph4.0 kmh 29.98 in1015.2 mb 0.00 in0.0 mm 0.00 in0.0 mm 0.05 in1.3 mm
07:59 PM 49.6°F9.8°C 22.5°F-5.3°C 34% 1.3 mph N2.1 kmh N 2.5 mph4.0 kmh 29.98 in1015.2 mb 0.00 in0.0 mm 0.00 in0.0 mm 0.05 in1.3 mm
08:04 PM 49.3°F9.6°C 22.1°F-5.5°C 34% 2.0 mph NW3.2 kmh NW 4.9 mph7.9 kmh 29.97 in1014.9 mb 0.00 in0.0 mm 0.00 in0.0 mm 0.05 in1.3 mm
08:09 PM 49.1°F9.5°C 22.6°F-5.2°C 35% 1.8 mph ENE2.9 kmh ENE 2.5 mph4.0 kmh 29.98 in1015.2 mb 0.00 in0.0 mm 0.00 in0.0 mm 0.05 in1.3 mm
08:14 PM 48.9°F9.4°C 22.5°F-5.3°C 35% 3.6 mph NNE5.8 kmh NNE 4.9 mph7.9 kmh 29.98 in1015.2 mb 0.00 in0.0 mm 0.00 in0.0 mm 0.05 in1.3 mm
08:19 PM 48.7°F9.3°C 22.3°F-5.4°C 35% Calm Calm -- 29.98 in1015.2 mb 0.00 in0.0 mm 0.00 in0.0 mm 0.05 in1.3 mm
08:24 PM 48.6°F9.2°C 22.1°F-5.5°C 35% 0.9 mph ENE1.4 kmh ENE 2.5 mph4.0 kmh 29.98 in1015.2 mb 0.00 in0.0 mm 0.00 in0.0 mm 0.05 in1.3 mm
08:29 PM 48.4°F9.1°C 21.9°F-5.6°C 35% 1.1 mph ENE1.8 kmh ENE 2.5 mph4.0 kmh 29.98 in1015.2 mb 0.00 in0.0 mm 0.00 in0.0 mm 0.05 in1.3 mm
08:34 PM 48.2°F9.0°C 21.9°F-5.6°C 35% Calm Calm -- 29.99 in1015.6 mb 0.00 in0.0 mm 0.00 in0.0 mm 0.05 in1.3 mm
08:39 PM 48.0°F8.9°C 22.3°F-5.4°C 36% 0.9 mph ENE1.4 kmh ENE 2.5 mph4.0 kmh 29.99 in1015.6 mb 0.00 in0.0 mm 0.00 in0.0 mm 0.05 in1.3 mm
08:44 PM 47.8°F8.8°C 22.3°F-5.4°C 36% 1.3 mph NNE2.1 kmh NNE 2.5 mph4.0 kmh 29.99 in1015.6 mb 0.00 in0.0 mm 0.00 in0.0 mm 0.05 in1.3 mm
08:49 PM 47.7°F8.7°C 22.6°F-5.2°C 37% 2.5 mph NE4.0 kmh NE 2.5 mph4.0 kmh 29.99 in1015.6 mb 0.00 in0.0 mm 0.00 in0.0 mm 0.05 in1.3 mm
08:54 PM 47.3°F8.5°C 23.0°F-5.0°C 38% Calm Calm -- 30.00 in1015.9 mb 0.00 in0.0 mm 0.00 in0.0 mm 0.05 in1.3 mm
08:59 PM 47.1°F8.4°C 23.5°F-4.7°C 39% Calm Calm -- 30.01 in1016.3 mb 0.00 in0.0 mm 0.00 in0.0 mm 0.05 in1.3 mm
09:04 PM 46.6°F8.1°C 25.3°F-3.7°C 43% Calm Calm -- 30.01 in1016.3 mb 0.00 in0.0 mm 0.00 in0.0 mm 0.05 in1.3 mm
09:09 PM 46.2°F7.9°C 25.0°F-3.9°C 43% Calm Calm -- 30.02 in1016.6 mb 0.00 in0.0 mm 0.00 in0.0 mm 0.05 in1.3 mm
09:14 PM 45.7°F7.6°C 25.0°F-3.9°C 44% Calm Calm -- 30.01 in1016.3 mb 0.00 in0.0 mm 0.00 in0.0 mm 0.05 in1.3 mm
09:19 PM 45.0°F7.2°C 25.0°F-3.9°C 45% Calm Calm -- 30.01 in1016.3 mb 0.00 in0.0 mm 0.00 in0.0 mm 0.05 in1.3 mm
09:24 PM 44.4°F6.9°C 23.9°F-4.5°C 44% 0.9 mph NE1.4 kmh NE 2.5 mph4.0 kmh 30.01 in1016.3 mb 0.00 in0.0 mm 0.00 in0.0 mm 0.05 in1.3 mm
09:29 PM 43.9°F6.6°C 22.3°F-5.4°C 42% 0.9 mph NE1.4 kmh NE 2.5 mph4.0 kmh 30.01 in1016.3 mb 0.00 in0.0 mm 0.00 in0.0 mm 0.05 in1.3 mm
09:34 PM 43.7°F6.5°C 22.1°F-5.5°C 42% Calm Calm -- 30.01 in1016.3 mb 0.00 in0.0 mm 0.00 in0.0 mm 0.05 in1.3 mm
09:39 PM 43.5°F6.4°C 21.9°F-5.6°C 42% Calm Calm -- 30.01 in1016.3 mb 0.00 in0.0 mm 0.00 in0.0 mm 0.05 in1.3 mm
09:44 PM 43.5°F6.4°C 21.9°F-5.6°C 42% Calm Calm -- 30.01 in1016.3 mb 0.00 in0.0 mm 0.00 in0.0 mm 0.05 in1.3 mm
09:49 PM 43.5°F6.4°C 23.0°F-5.0°C 44% Calm Calm -- 30.02 in1016.6 mb 0.00 in0.0 mm 0.00 in0.0 mm 0.05 in1.3 mm
09:54 PM 43.5°F6.4°C 24.6°F-4.1°C 47% Calm Calm -- 30.03 in1016.9 mb 0.00 in0.0 mm 0.00 in0.0 mm 0.05 in1.3 mm
09:59 PM 43.3°F6.3°C 25.0°F-3.9°C 48% Calm Calm -- 30.02 in1016.6 mb 0.00 in0.0 mm 0.00 in0.0 mm 0.05 in1.3 mm
10:04 PM 43.0°F6.1°C 25.2°F-3.8°C 49% Calm Calm -- 30.02 in1016.6 mb 0.00 in0.0 mm 0.00 in0.0 mm 0.05 in1.3 mm
10:09 PM 42.4°F5.8°C 24.6°F-4.1°C 49% Calm Calm -- 30.02 in1016.6 mb 0.00 in0.0 mm 0.00 in0.0 mm 0.05 in1.3 mm
10:14 PM 42.1°F5.6°C 22.3°F-5.4°C 45% Calm Calm -- 30.03 in1016.9 mb 0.00 in0.0 mm 0.00 in0.0 mm 0.05 in1.3 mm
10:19 PM 41.9°F5.5°C 22.1°F-5.5°C 45% Calm Calm -- 30.03 in1016.9 mb 0.00 in0.0 mm 0.00 in0.0 mm 0.05 in1.3 mm
10:24 PM 41.9°F5.5°C 21.6°F-5.8°C 44% 0.2 mph E0.3 kmh E 2.5 mph4.0 kmh 30.03 in1016.9 mb 0.00 in0.0 mm 0.00 in0.0 mm 0.05 in1.3 mm
10:29 PM 41.9°F5.5°C 21.6°F-5.8°C 44% Calm Calm -- 30.03 in1016.9 mb 0.00 in0.0 mm 0.00 in0.0 mm 0.05 in1.3 mm
10:34 PM 42.3°F5.7°C 21.9°F-5.6°C 44% Calm Calm -- 30.04 in1017.3 mb 0.00 in0.0 mm 0.00 in0.0 mm 0.05 in1.3 mm
10:39 PM 42.4°F5.8°C 22.6°F-5.2°C 45% Calm Calm -- 30.05 in1017.6 mb 0.00 in0.0 mm 0.00 in0.0 mm 0.05 in1.3 mm
10:44 PM 42.4°F5.8°C 24.1°F-4.4°C 48% Calm Calm -- 30.06 in1017.9 mb 0.00 in0.0 mm 0.00 in0.0 mm 0.05 in1.3 mm
10:49 PM 42.1°F5.6°C 23.9°F-4.5°C 48% 0.2 mph ENE0.3 kmh ENE 2.5 mph4.0 kmh 30.06 in1017.9 mb 0.00 in0.0 mm 0.00 in0.0 mm 0.05 in1.3 mm
10:54 PM 41.9°F5.5°C 22.6°F-5.2°C 46% Calm Calm -- 30.06 in1017.9 mb 0.00 in0.0 mm 0.00 in0.0 mm 0.05 in1.3 mm
10:59 PM 41.7°F5.4°C 21.9°F-5.6°C 45% 2.7 mph NE4.3 kmh NE 4.9 mph7.9 kmh 30.06 in1017.9 mb 0.00 in0.0 mm 0.00 in0.0 mm 0.05 in1.3 mm
11:04 PM 41.5°F5.3°C 21.7°F-5.7°C 45% 1.8 mph N2.9 kmh N 2.5 mph4.0 kmh 30.05 in1017.6 mb 0.00 in0.0 mm 0.00 in0.0 mm 0.05 in1.3 mm
11:09 PM 41.4°F5.2°C 21.6°F-5.8°C 45% 0.9 mph NE1.4 kmh NE 2.5 mph4.0 kmh 30.06 in1017.9 mb 0.00 in0.0 mm 0.00 in0.0 mm 0.05 in1.3 mm
11:14 PM 41.4°F5.2°C 21.6°F-5.8°C 45% 2.0 mph ENE3.2 kmh ENE 4.9 mph7.9 kmh 30.06 in1017.9 mb 0.00 in0.0 mm 0.00 in0.0 mm 0.05 in1.3 mm
11:19 PM 41.5°F5.3°C 22.3°F-5.4°C 46% 1.3 mph E2.1 kmh E 2.5 mph4.0 kmh 30.07 in1018.3 mb 0.00 in0.0 mm 0.00 in0.0 mm 0.05 in1.3 mm
11:24 PM 41.5°F5.3°C 22.3°F-5.4°C 46% Calm Calm -- 30.07 in1018.3 mb 0.00 in0.0 mm 0.00 in0.0 mm 0.05 in1.3 mm
11:29 PM 41.2°F5.1°C 23.5°F-4.7°C 49% Calm Calm -- 30.08 in1018.6 mb 0.00 in0.0 mm 0.00 in0.0 mm 0.05 in1.3 mm
11:34 PM 40.8°F4.9°C 23.2°F-4.9°C 49% Calm Calm -- 30.08 in1018.6 mb 0.00 in0.0 mm 0.00 in0.0 mm 0.05 in1.3 mm
11:39 PM 40.5°F4.7°C 22.3°F-5.4°C 48% Calm Calm -- 30.07 in1018.3 mb 0.00 in0.0 mm 0.00 in0.0 mm 0.05 in1.3 mm
11:44 PM 40.1°F4.5°C 20.5°F-6.4°C 45% Calm Calm -- 30.07 in1018.3 mb 0.00 in0.0 mm 0.00 in0.0 mm 0.05 in1.3 mm
11:49 PM 40.1°F4.5°C 19.4°F-7.0°C 43% 0.2 mph ENE0.3 kmh ENE 2.5 mph4.0 kmh 30.06 in1017.9 mb 0.00 in0.0 mm 0.00 in0.0 mm 0.05 in1.3 mm
11:54 PM 40.1°F4.5°C 19.4°F-7.0°C 43% 3.4 mph 5.5 kmh 4.9 mph7.9 kmh 30.07 in1018.3 mb 0.00 in0.0 mm 0.00 in0.0 mm 0.05 in1.3 mm
11:59 PM 40.1°F4.5°C 19.4°F-7.0°C 43% Calm Calm -- 30.07 in1018.3 mb 0.00 in0.0 mm 0.00 in0.0 mm 0.05 in1.3 mm